Time;durP1;ratioP1;P1;durP2;ratioP2;P2;SDS_P1;SDS_P2;PMS_P1;PMS_P2;Temp;Humidity;BMP_temperature;BMP_pressure;BME280_temperature;BME280_humidity;BME280_pressure;Samples;Min_cycle;Max_cycle;Signal;HPM_P1;HPM_P2
2024/04/04 00:01:18;;;;;;;0.80;0.80;;;;;;;-0.08;77.40;100085.59;5087734;28;20016;-61
2024/04/04 00:03:45;;;;;;;1.15;1.15;;;;;;;-0.33;78.34;100072.94;5087572;28;20051;-61
2024/04/04 00:06:10;;;;;;;0.55;0.55;;;;;;;-0.22;78.38;100072.41;5087851;28;20468;-61
2024/04/04 00:08:36;;;;;;;1.40;1.00;;;;;;;-0.31;79.00;100056.00;5086226;28;20060;-62
2024/04/04 00:11:11;;;;;;;0.57;0.57;;;;;;;-0.24;79.05;100048.53;5087728;28;20040;-60
2024/04/04 00:13:37;;;;;;;0.60;0.60;;;;;;;-0.26;79.05;100057.00;5087648;28;20061;-61
2024/04/04 00:16:03;;;;;;;1.15;1.13;;;;;;;-0.35;79.47;100056.72;5087581;28;20109;-60
2024/04/04 00:18:29;;;;;;;1.35;0.93;;;;;;;-0.34;79.81;100061.03;5087566;28;20080;-61
2024/04/04 00:20:54;;;;;;;1.30;0.80;;;;;;;-0.14;78.98;100053.97;5087241;28;20084;-61
2024/04/04 00:23:20;;;;;;;0.60;0.60;;;;;;;-0.22;79.46;100049.47;5087518;28;20157;-61
2024/04/04 00:25:45;;;;;;;0.63;0.63;;;;;;;-0.28;79.96;100052.66;5086285;28;20020;-61
2024/04/04 00:28:11;;;;;;;0.85;0.85;;;;;;;-0.23;79.87;100053.69;5087354;28;20028;-61
2024/04/04 00:30:36;;;;;;;0.75;0.75;;;;;;;-0.26;79.69;100044.22;5087534;28;20059;-60
2024/04/04 00:33:02;;;;;;;0.50;0.50;;;;;;;-0.30;80.13;100047.53;5086987;28;20020;-60
2024/04/04 00:35:27;;;;;;;0.50;0.50;;;;;;;-0.17;79.37;100022.38;5087343;28;20338;-62
2024/04/04 00:37:52;;;;;;;0.80;0.80;;;;;;;-0.38;79.56;100051.53;5087119;28;20090;-60
2024/04/04 00:40:18;;;;;;;0.77;0.75;;;;;;;-0.26;79.17;100056.16;5087170;28;20020;-61
2024/04/04 00:42:49;;;;;;;0.80;0.80;;;;;;;-0.39;79.82;100043.03;5087242;28;20028;-60
2024/04/04 00:45:14;;;;;;;0.60;0.60;;;;;;;-0.44;80.19;100036.03;5087055;28;20032;-60
2024/04/04 00:47:44;;;;;;;0.90;0.90;;;;;;;-0.63;80.75;100031.25;5087203;28;20040;-61
2024/04/04 00:50:10;;;;;;;0.45;0.45;;;;;;;-0.58;80.78;100030.50;5086503;28;20039;-60
2024/04/04 00:52:36;;;;;;;0.70;0.70;;;;;;;-0.35;79.61;100033.75;5086749;28;20076;-60
2024/04/04 00:55:01;;;;;;;0.57;0.57;;;;;;;-0.53;80.82;100037.47;5086984;28;20024;-60
2024/04/04 00:57:27;;;;;;;0.60;0.60;;;;;;;-0.54;81.06;100038.31;5086873;28;20020;-62
2024/04/04 00:59:54;;;;;;;0.80;0.80;;;;;;;-0.44;80.69;100031.81;5085258;28;20025;-60
2024/04/04 01:02:20;;;;;;;0.50;0.50;;;;;;;-0.28;79.96;100025.50;5086539;28;20078;-62
2024/04/04 01:04:46;;;;;;;0.95;0.95;;;;;;;-0.49;80.62;100030.78;5086549;28;20029;-61
2024/04/04 01:07:14;;;;;;;2.15;1.95;;;;;;;-0.52;80.82;100034.13;5086202;28;20016;-61
2024/04/04 01:09:39;;;;;;;0.80;0.80;;;;;;;-0.54;81.13;100033.19;5085216;28;20059;-61
2024/04/04 01:12:05;;;;;;;0.57;0.57;;;;;;;-0.49;81.20;100023.13;5084814;28;20471;-61
2024/04/04 01:14:30;;;;;;;0.70;0.70;;;;;;;-0.54;81.11;100028.09;5086542;28;20069;-60
2024/04/04 01:16:55;;;;;;;0.80;0.80;;;;;;;-0.54;81.04;100017.91;5085058;28;20039;-61
2024/04/04 01:19:21;;;;;;;0.55;0.55;;;;;;;-0.54;81.08;100017.91;5086114;28;20527;-60
2024/04/04 01:21:46;;;;;;;2.85;1.15;;;;;;;-0.56;81.11;100026.34;5085800;28;20024;-61
2024/04/04 01:24:11;;;;;;;1.60;0.85;;;;;;;-0.57;81.20;100014.38;5084850;28;20027;-60
2024/04/04 01:26:37;;;;;;;0.60;0.60;;;;;;;-0.50;81.11;100016.31;5086165;28;20016;-60
2024/04/04 01:29:02;;;;;;;0.60;0.60;;;;;;;-0.53;81.20;100017.06;5086199;28;20051;-60
2024/04/04 01:31:30;;;;;;;0.60;0.60;;;;;;;-0.52;81.22;100006.06;5085957;28;20370;-61
2024/04/04 01:33:55;;;;;;;0.60;0.60;;;;;;;-0.40;80.79;100012.38;5086162;28;20020;-61
2024/04/04 01:36:20;;;;;;;0.70;0.70;;;;;;;-0.42;80.63;99996.16;5084424;28;20055;-62
2024/04/04 01:38:45;;;;;;;0.50;0.50;;;;;;;-0.52;81.03;99992.44;5085960;28;20445;-61
2024/04/04 01:41:11;;;;;;;0.80;0.80;;;;;;;-0.62;81.55;99993.84;5085621;28;20027;-62
2024/04/04 01:43:36;;;;;;;0.60;0.60;;;;;;;-0.58;81.64;99982.94;5085742;28;20036;-63
2024/04/04 01:46:02;;;;;;;0.50;0.50;;;;;;;-0.50;81.25;99990.81;5085617;28;20115;-62
2024/04/04 01:48:27;;;;;;;0.60;0.60;;;;;;;-0.58;81.70;99993.13;5085575;28;20101;-61
2024/04/04 01:50:52;;;;;;;0.70;0.70;;;;;;;-0.57;81.84;99992.31;5085440;28;20022;-60
2024/04/04 01:53:17;;;;;;;0.63;0.63;;;;;;;-0.42;81.48;99998.69;5085526;28;20106;-60
2024/04/04 01:55:43;;;;;;;0.50;0.50;;;;;;;-0.49;81.68;99987.44;5085628;28;20050;-61
2024/04/04 01:58:08;;;;;;;1.13;0.73;;;;;;;-0.46;81.45;99986.69;5085665;28;20035;-60
2024/04/04 02:00:33;;;;;;;0.80;0.80;;;;;;;-0.57;81.90;99987.22;5084639;28;20031;-60
2024/04/04 02:02:59;;;;;;;0.60;0.60;;;;;;;-0.49;81.66;99972.13;5085049;28;20028;-62
2024/04/04 02:05:24;;;;;;;0.70;0.70;;;;;;;-0.48;81.76;99975.56;5085526;28;20021;-61
2024/04/04 02:07:49;;;;;;;0.60;0.60;;;;;;;-0.54;81.56;99972.00;5085027;28;20048;-62
2024/04/04 02:10:15;;;;;;;0.50;0.50;;;;;;;-0.63;82.06;99974.28;5085519;28;20028;-61
2024/04/04 02:12:41;;;;;;;0.68;0.68;;;;;;;-0.55;82.25;99965.19;5085379;28;20027;-61
2024/04/04 02:15:09;;;;;;;1.58;0.60;;;;;;;-0.54;82.06;99974.56;5085378;28;20040;-62
2024/04/04 02:17:36;;;;;;;0.85;0.85;;;;;;;-0.52;81.88;99965.28;5085039;28;20023;-61
2024/04/04 02:20:01;;;;;;;0.50;0.50;;;;;;;-0.55;82.00;99975.38;5085199;28;20029;-60
2024/04/04 02:22:26;;;;;;;0.63;0.63;;;;;;;-0.47;82.14;99969.63;5083601;28;20034;-61
2024/04/04 02:24:52;;;;;;;0.50;0.50;;;;;;;-0.46;81.51;99956.91;5085197;28;20028;-61
2024/04/04 02:27:17;;;;;;;0.52;0.52;;;;;;;-0.51;82.02;99971.22;5085213;28;20286;-61
2024/04/04 02:29:45;;;;;;;1.23;1.13;;;;;;;-0.56;81.97;99958.31;5085053;28;20026;-62
2024/04/04 02:32:11;;;;;;;0.80;0.80;;;;;;;-0.62;82.15;99950.50;5083925;28;20031;-61
2024/04/04 02:34:36;;;;;;;0.60;0.60;;;;;;;-0.53;81.90;99960.97;5083723;28;20036;-60
2024/04/04 02:37:02;;;;;;;0.52;0.52;;;;;;;-0.57;82.04;99953.19;5085098;28;20044;-61
2024/04/04 02:39:28;;;;;;;0.52;0.52;;;;;;;-0.45;81.84;99961.22;5085176;28;20059;-60
2024/04/04 02:41:54;;;;;;;0.80;0.75;;;;;;;-0.59;81.91;99942.09;5084822;28;20031;-61
2024/04/04 02:44:19;;;;;;;0.50;0.50;;;;;;;-0.37;80.88;99953.78;5084861;28;20103;-61
2024/04/04 02:46:45;;;;;;;0.70;0.70;;;;;;;-0.47;81.36;99950.09;5085029;28;20040;-62
2024/04/04 02:49:10;;;;;;;0.50;0.50;;;;;;;-0.52;81.46;99965.28;5084918;28;20033;-60
2024/04/04 02:51:35;;;;;;;0.60;0.60;;;;;;;-0.67;81.48;99934.22;5084960;28;20248;-60
2024/04/04 02:54:01;;;;;;;0.75;0.75;;;;;;;-0.54;81.59;99953.28;5084794;28;20021;-60
2024/04/04 02:56:26;;;;;;;0.50;0.50;;;;;;;-0.59;81.78;99939.53;5084879;28;20029;-60
2024/04/04 02:58:51;;;;;;;1.00;0.90;;;;;;;-0.60;81.98;99950.53;5084859;28;20087;-61
2024/04/04 03:01:17;;;;;;;3.00;2.03;;;;;;;-0.63;82.01;99941.13;5084793;28;20021;-61
2024/04/04 03:03:45;;;;;;;0.60;0.60;;;;;;;-0.59;81.96;99949.75;5084712;28;20051;-61
2024/04/04 03:06:11;;;;;;;0.95;0.95;;;;;;;-0.55;81.62;99926.06;5084678;28;20028;-60
2024/04/04 03:08:37;;;;;;;1.10;0.95;;;;;;;-0.55;81.22;99933.69;5084564;28;20102;-61
2024/04/04 03:11:04;;;;;;;0.60;0.60;;;;;;;-0.58;81.86;99921.75;5084606;28;20017;-60
2024/04/04 03:13:30;;;;;;;1.13;1.13;;;;;;;-0.60;81.85;99923.38;5086098;28;20035;-61
2024/04/04 03:15:56;;;;;;;1.45;1.35;;;;;;;-0.59;81.58;99912.34;5088701;28;20028;-61
2024/04/04 03:18:22;;;;;;;0.65;0.65;;;;;;;-0.63;81.90;99908.88;5088696;28;20376;-61
2024/04/04 03:20:47;;;;;;;1.48;0.82;;;;;;;-0.63;82.08;99907.97;5087104;28;20017;-61
2024/04/04 03:23:13;;;;;;;0.90;0.73;;;;;;;-0.60;82.09;99907.19;5088494;28;20092;-61
2024/04/04 03:25:38;;;;;;;0.68;0.68;;;;;;;-0.51;81.35;99903.22;5088626;28;20024;-61
2024/04/04 03:28:04;;;;;;;0.50;0.50;;;;;;;-0.54;81.55;99908.25;5088329;28;20029;-61
2024/04/04 03:30:29;;;;;;;0.80;0.75;;;;;;;-0.47;80.92;99888.91;5087004;28;20024;-61
2024/04/04 03:32:54;;;;;;;0.60;0.60;;;;;;;-0.62;81.49;99904.59;5088328;28;20028;-60
2024/04/04 03:35:20;;;;;;;0.98;0.90;;;;;;;-0.60;82.00;99900.44;5088219;28;20025;-61
2024/04/04 03:37:45;;;;;;;0.75;0.75;;;;;;;-0.63;81.85;99908.88;5088160;28;20036;-61
2024/04/04 03:40:10;;;;;;;2.40;0.80;;;;;;;-0.68;82.04;99890.00;5088198;28;20024;-61
2024/04/04 03:42:35;;;;;;;0.85;0.85;;;;;;;-0.64;82.35;99893.53;5086647;28;20032;-61
2024/04/04 03:45:02;;;;;;;1.50;1.40;;;;;;;-0.63;82.29;99887.59;5088000;28;20031;-61
2024/04/04 03:47:27;;;;;;;0.60;0.60;;;;;;;-0.63;82.36;99883.38;5088094;28;20051;-61
2024/04/04 03:49:53;;;;;;;0.82;0.80;;;;;;;-0.66;82.41;99878.19;5087943;28;20032;-61
2024/04/04 03:52:18;;;;;;;1.10;1.10;;;;;;;-0.67;82.63;99895.97;5087961;28;20023;-59
2024/04/04 03:54:43;;;;;;;1.08;1.08;;;;;;;-0.57;82.09;99880.13;5087891;28;20489;-61
2024/04/04 03:57:09;;;;;;;0.50;0.50;;;;;;;-0.57;82.25;99859.72;5086579;28;20029;-61
2024/04/04 03:59:34;;;;;;;0.50;0.50;;;;;;;-0.60;82.36;99877.47;5086696;28;20477;-61
2024/04/04 04:02:00;;;;;;;0.57;0.57;;;;;;;-0.31;80.85;99859.56;5087519;28;20078;-61
2024/04/04 04:04:25;;;;;;;1.70;1.33;;;;;;;-0.62;81.94;99848.50;5087960;28;20487;-60
2024/04/04 04:06:51;;;;;;;10.30;1.00;;;;;;;-0.51;81.64;99857.34;5087622;28;20028;-61
2024/04/04 04:09:16;;;;;;;0.50;0.50;;;;;;;-0.51;81.74;99836.94;5087442;28;20052;-61
2024/04/04 04:11:42;;;;;;;1.63;0.65;;;;;;;-0.48;81.82;99836.16;5087749;28;20383;-60
2024/04/04 04:14:08;;;;;;;0.73;0.63;;;;;;;-0.46;81.73;99844.69;5087488;28;20050;-62
2024/04/04 04:16:33;;;;;;;1.77;1.15;;;;;;;-0.36;81.17;99850.94;5087649;28;20028;-61
2024/04/04 04:18:58;;;;;;;3.92;1.75;;;;;;;-0.54;81.99;99851.28;5087281;28;20020;-62
2024/04/04 04:21:27;;;;;;;1.02;0.93;;;;;;;-0.50;82.16;99823.34;5087447;28;20027;-61
2024/04/04 04:23:54;;;;;;;0.60;0.60;;;;;;;-0.40;81.59;99838.94;5086350;28;20091;-61
2024/04/04 04:26:20;;;;;;;0.63;0.63;;;;;;;-0.55;82.64;99869.94;5087445;28;20025;-61
2024/04/04 04:28:46;;;;;;;0.68;0.68;;;;;;;-0.39;82.11;99841.53;5087332;28;20115;-60
2024/04/04 04:31:22;;;;;;;1.00;1.00;;;;;;;-0.42;82.44;99845.66;5087509;28;20024;-61
2024/04/04 04:33:47;;;;;;;1.58;1.48;;;;;;;-0.45;81.92;99837.94;5085796;28;20052;-61
2024/04/04 04:36:12;;;;;;;0.57;0.57;;;;;;;-0.42;82.68;99843.13;5086812;28;20020;-60
2024/04/04 04:38:37;;;;;;;0.50;0.50;;;;;;;-0.39;82.09;99863.59;5087364;28;20020;-61
2024/04/04 04:41:04;;;;;;;0.45;0.45;;;;;;;-0.34;81.20;99813.59;5087037;28;20032;-62
2024/04/04 04:43:30;;;;;;;0.50;0.50;;;;;;;-0.35;81.84;99813.53;5086881;28;20021;-61
2024/04/04 04:45:55;;;;;;;0.88;0.88;;;;;;;-0.26;81.56;99847.78;5085659;28;20122;-61
2024/04/04 04:48:21;;;;;;;1.70;0.70;;;;;;;-0.39;81.41;99821.13;5087052;28;20032;-61
2024/04/04 04:50:47;;;;;;;2.00;1.90;;;;;;;-0.49;82.18;99821.66;5087009;28;20028;-60
2024/04/04 04:53:12;;;;;;;1.23;1.02;;;;;;;-0.47;82.51;99827.69;5086446;28;20078;-61
2024/04/04 04:55:38;;;;;;;0.63;0.60;;;;;;;-0.35;81.85;99832.25;5086834;28;20055;-61
2024/04/04 04:58:03;;;;;;;1.13;1.00;;;;;;;-0.40;81.82;99815.97;5086752;28;20020;-62
2024/04/04 05:00:30;;;;;;;3.20;0.80;;;;;;;-0.34;81.63;99797.41;5085325;28;20025;-62
2024/04/04 05:02:55;;;;;;;0.80;0.80;;;;;;;-0.31;81.19;99823.00;5086617;28;20036;-60
2024/04/04 05:05:20;;;;;;;0.70;0.68;;;;;;;-0.42;81.35;99813.38;5086397;28;20025;-60
2024/04/04 05:07:46;;;;;;;0.60;0.60;;;;;;;-0.04;79.16;99812.66;5086345;28;20115;-61
2024/04/04 05:10:11;;;;;;;0.70;0.70;;;;;;;-0.27;80.23;99812.91;5086582;28;20464;-62
2024/04/04 05:12:36;;;;;;;2.97;1.02;;;;;;;-0.20;79.82;99790.97;5086566;28;20025;-60
2024/04/04 05:15:02;;;;;;;1.10;0.98;;;;;;;-0.15;78.81;99820.03;5086165;28;20031;-60
2024/04/04 05:17:27;;;;;;;1.13;0.80;;;;;;;-0.27;79.66;99802.69;5086562;28;20073;-61
2024/04/04 05:19:53;;;;;;;0.65;0.65;;;;;;;-0.03;77.71;99796.50;5086241;28;20020;-61
2024/04/04 05:22:18;;;;;;;4.43;0.93;;;;;;;-0.32;78.85;99800.88;5084810;28;20021;-61
2024/04/04 05:24:44;;;;;;;1.65;0.88;;;;;;;-0.16;78.38;99802.97;5086145;28;20135;-60
2024/04/04 05:27:09;;;;;;;0.70;0.70;;;;;;;-0.36;79.30;99788.84;5086287;28;20024;-62
2024/04/04 05:29:34;;;;;;;0.82;0.75;;;;;;;-0.24;78.92;99839.31;5085983;28;20103;-62
2024/04/04 05:32:00;;;;;;;0.50;0.50;;;;;;;-0.07;77.26;99798.94;5086123;28;20017;-61
2024/04/04 05:34:28;;;;;;;1.20;1.10;;;;;;;-0.08;76.40;99787.00;5085860;28;20093;-61
2024/04/04 05:36:53;;;;;;;2.05;1.33;;;;;;;-0.26;77.31;99790.81;5085651;28;20099;-62
2024/04/04 05:39:19;;;;;;;0.50;0.50;;;;;;;-0.18;76.70;99780.81;5085966;28;20040;-62
2024/04/04 05:41:47;;;;;;;0.60;0.60;;;;;;;-0.41;78.15;99773.41;5085709;28;20028;-62
2024/04/04 05:44:13;;;;;;;1.67;1.40;;;;;;;-0.11;76.36;99769.91;5084311;28;20028;-61
2024/04/04 05:46:38;;;;;;;0.80;0.80;;;;;;;-0.21;76.55;99783.28;5085765;28;20028;-61
2024/04/04 05:49:03;;;;;;;0.60;0.60;;;;;;;-0.20;76.32;99769.69;5085594;28;20035;-62
2024/04/04 05:51:29;;;;;;;1.08;0.75;;;;;;;-0.20;75.83;99785.88;5085624;28;20020;-62
2024/04/04 05:53:54;;;;;;;3.53;0.75;;;;;;;-0.18;75.34;99803.78;5085608;28;20027;-61
2024/04/04 05:56:20;;;;;;;1.00;0.93;;;;;;;-0.33;75.72;99777.03;5085643;28;20027;-62
2024/04/04 05:58:45;;;;;;;0.55;0.55;;;;;;;-0.44;76.85;99761.47;5085464;28;20056;-62
2024/04/04 06:01:11;;;;;;;0.63;0.63;;;;;;;-0.21;76.42;99752.66;5084169;28;20021;-61
2024/04/04 06:03:36;;;;;;;0.50;0.50;;;;;;;-0.10;74.88;99770.78;5085280;28;20025;-61
2024/04/04 06:06:03;;;;;;;0.50;0.50;;;;;;;-0.31;75.71;99754.13;5085374;28;20024;-62
2024/04/04 06:08:29;;;;;;;0.80;0.80;;;;;;;-0.26;76.12;99771.25;5085377;28;20060;-61
2024/04/04 06:10:55;;;;;;;10.95;1.25;;;;;;;-0.19;75.60;99797.78;5084990;28;20042;-61
2024/04/04 06:13:20;;;;;;;0.77;0.73;;;;;;;-0.44;76.38;99781.84;5085383;28;20035;-62
2024/04/04 06:15:55;;;;;;;12.68;2.85;;;;;;;-0.47;76.89;99758.81;5085379;28;20052;-61
2024/04/04 06:18:21;;;;;;;0.50;0.50;;;;;;;-0.35;76.68;99749.78;5085179;28;20024;-61
2024/04/04 06:20:46;;;;;;;0.85;0.85;;;;;;;-0.34;76.52;99756.59;5085298;28;20035;-62
2024/04/04 06:23:12;;;;;;;1.60;1.48;;;;;;;-0.41;76.70;99753.00;5085232;28;20020;-61
2024/04/04 06:25:37;;;;;;;0.98;0.98;;;;;;;-0.11;74.96;99757.16;5083914;28;20020;-61
2024/04/04 06:28:03;;;;;;;0.60;0.60;;;;;;;0.02;73.97;99755.78;5085479;28;20024;-61
2024/04/04 06:30:28;;;;;;;0.90;0.90;;;;;;;-0.33;75.49;99763.41;5085234;28;20032;-61
2024/04/04 06:32:53;;;;;;;1.17;0.70;;;;;;;0.02;73.19;99754.94;5085253;28;20029;-61
2024/04/04 06:35:19;;;;;;;0.70;0.70;;;;;;;-0.05;72.86;99746.25;5085132;28;20493;-61
2024/04/04 06:37:47;;;;;;;1.70;1.58;;;;;;;-0.20;73.34;99745.03;5083863;28;20096;-61
2024/04/04 06:40:14;;;;;;;0.50;0.50;;;;;;;-0.27;74.19;99738.94;5085429;28;20051;-61
2024/04/04 06:42:39;;;;;;;0.47;0.47;;;;;;;-0.32;75.18;99734.53;5083626;28;20098;-61
2024/04/04 06:45:05;;;;;;;0.52;0.52;;;;;;;-0.35;74.80;99734.47;5085234;28;20415;-62
2024/04/04 06:47:31;;;;;;;0.93;0.80;;;;;;;-0.51;75.35;99727.28;5084618;28;20020;-61
2024/04/04 06:49:57;;;;;;;0.60;0.60;;;;;;;-0.48;75.23;99723.09;5085023;28;20020;-62
2024/04/04 06:52:22;;;;;;;0.50;0.50;;;;;;;-0.35;75.24;99721.72;5084989;28;20100;-61
2024/04/04 06:54:47;;;;;;;0.50;0.50;;;;;;;-0.37;74.53;99721.69;5084948;28;20048;-62
2024/04/04 06:57:13;;;;;;;0.50;0.50;;;;;;;-0.65;75.99;99716.72;5085164;28;20028;-61
2024/04/04 06:59:39;;;;;;;0.77;0.77;;;;;;;0.05;73.01;99716.72;5085112;28;20400;-60
2024/04/04 07:02:05;;;;;;;0.65;0.65;;;;;;;-0.39;73.81;99724.19;5085060;28;20054;-62
2024/04/04 07:04:30;;;;;;;0.60;0.60;;;;;;;-0.65;75.18;99715.84;5083593;28;20035;-61
2024/04/04 07:06:56;;;;;;;0.60;0.60;;;;;;;-0.41;74.48;99718.19;5084933;28;20464;-60
2024/04/04 07:09:22;;;;;;;0.88;0.88;;;;;;;-0.65;75.74;99732.03;5084862;28;20127;-60
2024/04/04 07:11:47;;;;;;;0.50;0.50;;;;;;;-0.84;76.66;99712.81;5084831;28;20486;-62
2024/04/04 07:14:12;;;;;;;1.52;1.42;;;;;;;-0.53;75.56;99728.91;5084826;28;20108;-61
2024/04/04 07:16:38;;;;;;;0.50;0.50;;;;;;;-0.63;76.06;99729.50;5084783;28;20058;-61
2024/04/04 07:19:03;;;;;;;0.50;0.50;;;;;;;-0.61;76.17;99715.13;5084769;28;20056;-61
2024/04/04 07:21:28;;;;;;;0.60;0.60;;;;;;;-0.51;76.17;99704.31;5084455;28;20021;-60
2024/04/04 07:23:54;;;;;;;0.88;0.88;;;;;;;-0.64;76.85;99697.19;5084833;28;20024;-62
2024/04/04 07:26:19;;;;;;;0.70;0.70;;;;;;;-0.44;75.45;99714.69;5084823;28;20020;-61
2024/04/04 07:28:44;;;;;;;0.60;0.60;;;;;;;-0.74;77.06;99711.38;5084506;28;20464;-62
2024/04/04 07:31:10;;;;;;;0.50;0.50;;;;;;;-0.78;77.51;99712.09;5084853;28;20150;-62
2024/04/04 07:33:35;;;;;;;0.77;0.70;;;;;;;-0.81;77.89;99709.47;5084670;28;20040;-61
2024/04/04 07:36:00;;;;;;;0.50;0.50;;;;;;;-0.82;78.28;99712.84;5083203;28;20028;-61
2024/04/04 07:38:26;;;;;;;0.70;0.70;;;;;;;-0.91;78.40;99698.19;5083286;28;20106;-61
2024/04/04 07:40:51;;;;;;;1.80;1.70;;;;;;;-0.83;78.66;99699.25;5083174;28;20031;-60
2024/04/04 07:43:18;;;;;;;0.60;0.60;;;;;;;-0.77;78.81;99696.00;5084663;28;20025;-62
2024/04/04 07:45:44;;;;;;;1.05;0.93;;;;;;;-0.68;77.66;99734.50;5084674;28;20028;-62
2024/04/04 07:48:15;;;;;;;0.77;0.77;;;;;;;-0.57;77.74;99718.59;5084586;28;20037;-61
2024/04/04 07:50:41;;;;;;;0.80;0.80;;;;;;;-0.77;78.88;99716.41;5084591;28;20020;-63
2024/04/04 07:53:08;;;;;;;0.40;0.40;;;;;;;-0.87;79.38;99702.53;5084399;28;20036;-62
2024/04/04 07:55:35;;;;;;;0.90;0.90;;;;;;;-0.89;79.71;99705.06;5084435;28;20031;-61
2024/04/04 07:58:00;;;;;;;0.60;0.60;;;;;;;-0.69;79.38;99693.66;5084527;28;20469;-62
2024/04/04 08:00:25;;;;;;;0.80;0.80;;;;;;;-0.73;79.94;99696.94;5087000;28;20108;-61
2024/04/04 08:02:51;;;;;;;0.63;0.63;;;;;;;-0.65;79.66;99698.00;5087927;28;20028;-62
2024/04/04 08:05:16;;;;;;;0.82;0.82;;;;;;;-0.88;80.36;99695.72;5087756;28;20039;-63
2024/04/04 08:07:41;;;;;;;1.17;1.02;;;;;;;-0.82;80.24;99712.84;5087436;28;20024;-61
2024/04/04 08:10:10;;;;;;;0.60;0.60;;;;;;;-0.75;80.32;99709.63;5086792;28;20088;-61
2024/04/04 08:12:35;;;;;;;0.80;0.80;;;;;;;-0.85;80.35;99685.63;5087770;28;20353;-61
2024/04/04 08:15:04;;;;;;;0.70;0.70;;;;;;;-0.77;80.87;99694.31;5087710;28;20070;-60
2024/04/04 08:17:33;;;;;;;1.02;0.95;;;;;;;-0.28;79.08;99683.63;5087734;28;20469;-61
2024/04/04 08:19:59;;;;;;;0.40;0.40;;;;;;;-0.71;80.31;99692.75;5086121;28;20020;-62
2024/04/04 08:22:25;;;;;;;0.82;0.70;;;;;;;-0.54;80.05;99683.84;5087386;28;20020;-60
2024/04/04 08:24:51;;;;;;;0.60;0.60;;;;;;;-0.67;80.80;99681.81;5087606;28;20025;-61
2024/04/04 08:27:20;;;;;;;0.60;0.60;;;;;;;-0.95;82.07;99678.53;5087627;28;20031;-60
2024/04/04 08:29:49;;;;;;;0.50;0.50;;;;;;;-0.69;81.20;99680.91;5087529;28;20016;-60
2024/04/04 08:32:16;;;;;;;1.67;0.85;;;;;;;-0.55;81.20;99681.25;5079270;28;20066;-61
2024/04/04 08:34:42;;;;;;;0.77;0.77;;;;;;;-0.75;82.19;99677.38;5087341;28;20179;-62
2024/04/04 08:37:07;;;;;;;0.73;0.73;;;;;;;-0.56;81.57;99685.47;5086930;28;20036;-61
2024/04/04 08:39:33;;;;;;;1.52;1.42;;;;;;;-0.70;82.14;99685.13;5086033;28;20107;-62
2024/04/04 08:41:59;;;;;;;0.65;0.65;;;;;;;-0.69;82.52;99681.78;5085804;28;20128;-62
2024/04/04 08:44:25;;;;;;;0.80;0.80;;;;;;;-0.65;82.92;99680.16;5087441;28;20483;-60
2024/04/04 08:46:52;;;;;;;1.25;1.25;;;;;;;-0.37;81.81;99693.63;5087216;28;20024;-61
2024/04/04 08:49:19;;;;;;;0.60;0.60;;;;;;;-0.29;81.34;99671.69;5087110;28;20096;-62
2024/04/04 08:51:46;;;;;;;1.10;1.00;;;;;;;-0.51;82.18;99663.53;5086831;28;20504;-62
2024/04/04 08:54:13;;;;;;;1.23;0.90;;;;;;;-0.59;81.65;99684.56;5086809;28;20028;-62
2024/04/04 08:56:39;;;;;;;1.88;1.77;;;;;;;-0.65;82.39;99668.28;5087047;28;20111;-61
2024/04/04 08:59:04;;;;;;;0.77;0.77;;;;;;;-0.57;82.50;99676.13;5086914;28;20028;-60
2024/04/04 09:01:30;;;;;;;0.50;0.50;;;;;;;-0.71;83.06;99669.81;5086883;28;20017;-61
2024/04/04 09:03:55;;;;;;;1.50;1.40;;;;;;;-0.39;82.74;99667.19;5086711;28;20027;-61
2024/04/04 09:06:24;;;;;;;0.50;0.50;;;;;;;-0.37;82.69;99668.13;5086481;28;20020;-62
2024/04/04 09:08:53;;;;;;;0.55;0.55;;;;;;;-0.46;83.66;99670.44;5086650;28;20093;-61
2024/04/04 09:11:25;;;;;;;0.80;0.80;;;;;;;-0.43;82.96;99679.00;5086058;28;20019;-62
2024/04/04 09:14:01;;;;;;;0.70;0.70;;;;;;;-0.32;83.25;99652.91;5086720;28;20024;-61
2024/04/04 09:16:26;;;;;;;0.60;0.60;;;;;;;-0.42;83.66;99647.59;5085357;28;20024;-61
2024/04/04 09:18:52;;;;;;;0.50;0.50;;;;;;;-0.24;82.71;99665.84;5085114;28;20058;-62
2024/04/04 09:21:17;;;;;;;6.07;1.08;;;;;;;-0.25;83.27;99659.88;5084839;28;20024;-62
2024/04/04 09:23:43;;;;;;;1.80;1.65;;;;;;;-0.27;83.31;99671.72;5086489;28;20021;-61
2024/04/04 09:26:08;;;;;;;0.60;0.60;;;;;;;-0.40;83.67;99673.97;5086445;28;20020;-62
2024/04/04 09:28:35;;;;;;;0.60;0.60;;;;;;;-0.13;82.72;99649.09;5086458;28;20025;-61
2024/04/04 09:31:00;;;;;;;0.93;0.88;;;;;;;-0.30;83.25;99658.91;5086193;28;20028;-62
2024/04/04 09:33:28;;;;;;;0.60;0.60;;;;;;;0.01;82.52;99641.75;5084883;28;20020;-61
2024/04/04 09:35:55;;;;;;;0.70;0.70;;;;;;;-0.25;83.73;99654.78;5086176;28;20051;-61
2024/04/04 09:38:20;;;;;;;0.90;0.90;;;;;;;-0.37;84.76;99632.41;5085940;28;20017;-61
2024/04/04 09:40:48;;;;;;;0.50;0.50;;;;;;;-0.16;84.48;99632.03;5086345;28;20028;-61
2024/04/04 09:43:14;;;;;;;0.50;0.50;;;;;;;-0.11;84.19;99621.06;5086026;28;20068;-61
2024/04/04 09:45:43;;;;;;;0.63;0.63;;;;;;;0.03;83.47;99670.75;5085966;28;20044;-61
2024/04/04 09:48:09;;;;;;;1.20;1.10;;;;;;;0.11;82.62;99617.31;5086145;28;20028;-62
2024/04/04 09:50:34;;;;;;;0.70;0.70;;;;;;;0.30;82.23;99616.00;5084676;28;20447;-61
2024/04/04 09:53:02;;;;;;;0.60;0.60;;;;;;;0.17;82.82;99642.09;5085738;28;20027;-61
2024/04/04 09:55:29;;;;;;;0.70;0.70;;;;;;;0.17;83.21;99632.75;5085963;28;20039;-61
2024/04/04 09:57:56;;;;;;;1.35;1.25;;;;;;;0.22;82.65;99632.84;5085959;28;20046;-61
2024/04/04 10:00:27;;;;;;;0.93;0.93;;;;;;;0.38;82.37;99626.38;5084357;28;20055;-61
2024/04/04 10:02:57;;;;;;;0.80;0.80;;;;;;;0.26;81.96;99637.19;5084368;28;20111;-61
2024/04/04 10:05:36;;;;;;;0.60;0.60;;;;;;;0.26;83.34;99611.66;5084477;28;20029;-61
2024/04/04 10:08:09;;;;;;;0.60;0.60;;;;;;;0.53;81.71;99612.19;5084029;28;20040;-61
2024/04/04 10:10:35;;;;;;;0.50;0.50;;;;;;;0.42;81.99;99617.94;5085637;28;20024;-61
2024/04/04 10:13:22;;;;;;;0.68;0.68;;;;;;;0.40;82.76;99617.03;5085561;28;20048;-62
2024/04/04 10:15:48;;;;;;;0.80;0.80;;;;;;;0.41;81.64;99631.53;5085526;28;20508;-60
2024/04/04 10:18:18;;;;;;;0.50;0.50;;;;;;;0.38;82.56;99635.72;5084310;28;20025;-61
2024/04/04 10:20:58;;;;;;;0.80;0.80;;;;;;;0.95;79.82;99615.50;5085591;28;20044;-62
2024/04/04 10:23:25;;;;;;;0.75;0.65;;;;;;;0.79;78.99;99602.47;5084633;28;20039;-60
2024/04/04 10:25:50;;;;;;;9.02;0.80;;;;;;;0.41;81.54;99626.44;5085379;28;20060;-60
2024/04/04 10:28:18;;;;;;;0.52;0.52;;;;;;;0.55;81.51;99613.94;5085546;28;20020;-61
2024/04/04 10:30:47;;;;;;;0.63;0.63;;;;;;;0.73;80.55;99615.13;5085474;28;20456;-62
2024/04/04 10:33:13;;;;;;;0.50;0.50;;;;;;;0.78;80.24;99597.31;5084229;28;20032;-62
2024/04/04 10:35:39;;;;;;;1.10;0.88;;;;;;;0.44;81.73;99590.75;5085218;28;20021;-61
2024/04/04 10:38:12;;;;;;;1.35;1.25;;;;;;;0.61;82.11;99598.72;5083761;28;20040;-61
2024/04/04 10:40:38;;;;;;;0.68;0.68;;;;;;;0.61;81.68;99597.84;5085563;28;20028;-60
2024/04/04 10:43:04;;;;;;;0.60;0.60;;;;;;;0.56;82.49;99617.34;5085230;28;20078;-61
2024/04/04 10:45:30;;;;;;;0.80;0.80;;;;;;;0.98;80.81;99606.22;5085306;28;20025;-61
2024/04/04 10:47:56;;;;;;;1.10;1.00;;;;;;;0.82;80.97;99630.63;5085253;28;20021;-60
2024/04/04 10:50:22;;;;;;;0.50;0.50;;;;;;;1.26;78.05;99594.75;5085226;28;20051;-61
2024/04/04 10:52:47;;;;;;;0.50;0.50;;;;;;;0.75;79.16;99610.91;5085237;28;20043;-61
2024/04/04 10:55:13;;;;;;;0.60;0.60;;;;;;;0.66;80.38;99585.16;5085127;28;20107;-61
2024/04/04 10:57:39;;;;;;;0.80;0.80;;;;;;;0.49;81.15;99589.16;5085433;28;20044;-60
2024/04/04 11:00:13;;;;;;;0.50;0.50;;;;;;;0.43;82.54;99596.66;5085224;28;20095;-61
2024/04/04 11:02:43;;;;;;;0.50;0.50;;;;;;;0.61;82.38;99572.31;5085157;28;20025;-61
2024/04/04 11:05:10;;;;;;;0.50;0.50;;;;;;;0.54;81.46;99591.78;5084789;28;20032;-62
2024/04/04 11:07:38;;;;;;;1.08;0.85;;;;;;;0.34;82.81;99579.47;5084802;28;20028;-61
2024/04/04 11:10:06;;;;;;;0.70;0.70;;;;;;;0.47;82.78;99583.13;5085614;28;20032;-61
2024/04/04 11:12:31;;;;;;;0.60;0.60;;;;;;;0.41;84.00;99584.69;5084084;28;20016;-61
2024/04/04 11:14:59;;;;;;;0.80;0.80;;;;;;;0.66;81.92;99591.16;5085174;28;20031;-61
2024/04/04 11:17:25;;;;;;;0.60;0.60;;;;;;;0.61;81.96;99603.84;5085097;28;20234;-60
2024/04/04 11:20:20;;;;;;;0.50;0.50;;;;;;;0.97;82.31;99571.28;5085128;28;20017;-61
2024/04/04 11:22:45;;;;;;;0.98;0.98;;;;;;;0.91;80.40;99586.47;5071514;28;20052;-60
2024/04/04 11:25:11;;;;;;;0.80;0.80;;;;;;;0.61;81.66;99572.31;5084891;28;20044;-61
2024/04/04 11:27:38;;;;;;;0.70;0.70;;;;;;;0.36;84.29;99592.28;5085075;28;20024;-61
2024/04/04 11:30:08;;;;;;;0.60;0.60;;;;;;;0.67;83.70;99559.66;5084842;28;20026;-61